Observations for Trim Market St
| Time | AQI | Temp °C | Hum % | Pres Pa | CO μg/m³ | H₂S μg/m³ | NO μg/m³ | NO₂ μg/m³ | O₃ μg/m³ | SO₂ μg/m³ | PM1 μg/m³ | PM2.5 μg/m³ | PM10 μg/m³ |
|---|---|---|---|---|---|---|---|---|---|---|---|---|---|
| Sunday 16 August 2026 | |||||||||||||
| 09:45 | 2 | 20.4 | 61 | 57,706 | 0.15 | 0 | 1.99 | 2.74 | 29.27 | 0 | 1.43 | 2.98 | 4.12 |
| 09:44 | 2 | 20.4 | 61 | 57,696 | 0.18 | 0 | 1.48 | 4.67 | 35.48 | 0 | 1.43 | 3.97 | 5.49 |
| 09:43 | 2 | 20.3 | 61 | 57,688 | 0.19 | 0 | 1.39 | 2.82 | 26.7 | 0 | 1.43 | 3.96 | 5.49 |
| 09:41 | 2 | 20.3 | 62 | 57,657 | 0.2 | 0 | 1.43 | 3.76 | 25.37 | 0 | 1.43 | 2.94 | 4.15 |
| 09:40 | 2 | 20.3 | 62 | 57,640 | 0.2 | 0 | 1.55 | 3.23 | 23.69 | 0 | 1.43 | 3.43 | 4.83 |
| 09:37 | 2 | 20.3 | 63 | 57,570 | 0.27 | 0 | 2.19 | 4.01 | 24.17 | 0 | 0.71 | 2.9 | 4.18 |
| 09:34 | 2 | 20.2 | 63 | 57,529 | 0.31 | 0 | 1.46 | 3.57 | 21.53 | 0 | 0 | 2.37 | 3.53 |
| 09:28 | 2 | 20.1 | 65 | 57,281 | 0.45 | 0 | 1.98 | 5.74 | 15.94 | 0 | 1.43 | 2.79 | 4.91 |
| 09:27 | 2 | 20 | 66 | 57,205 | 0.46 | 0 | 2.13 | 7.31 | 23.6 | 0 | 0.71 | 2.77 | 4.26 |
| 09:25 | 2 | 20 | 66 | 56,992 | 0.5 | 0 | 1.59 | 6.49 | 17.18 | 0 | 1.43 | 3.23 | 4.93 |
| 09:19 | 2 | 19.5 | 69 | 55,729 | 0.55 | 0 | 1.72 | 8.7 | 21.6 | 0 | 0.71 | 2.11 | 3.74 |
| 09:18 | 2 | 19.4 | 70 | 55,314 | 0.55 | 0 | 1.71 | 9.74 | 34.71 | 0 | 1.43 | 3.55 | 5.65 |
| 09:17 | 2 | 19.2 | 70 | 54,830 | 0.52 | 0 | 1.67 | 6.91 | 38.04 | 0 | 1.43 | 2.55 | 4.4 |
| 09:16 | 2 | 19.1 | 71 | 54,260 | 0.52 | 0 | 1.59 | 8.14 | 29.34 | 0 | 1.43 | 3.02 | 5.04 |
| 09:13 | 2 | 18.6 | 72 | 52,236 | 0.47 | 0 | 1.72 | 13.16 | 61.15 | 0 | 2.14 | 3.46 | 5.68 |
| 09:12 | 2 | 18.3 | 72 | 51,572 | 0.48 | 0 | 1.9 | 11.59 | 60.6 | 0 | 2.14 | 2.97 | 5.07 |
| 09:11 | 2 | 18.1 | 72 | 51,131 | 0.53 | 0 | 1.96 | 32.65 | 52.11 | 0 | 2.14 | 3.45 | 5.68 |
| 09:09 | 2 | 17.6 | 72 | 51,656 | 0.4 | 0 | 2.08 | 16.63 | 57.06 | 0 | 0.71 | 2.97 | 5.07 |
| 09:08 | 2 | 17.4 | 72 | 51,812 | 0.44 | 0 | 2.11 | 26.14 | 55.66 | 0 | 2.14 | 3.45 | 5.68 |
| 09:07 | 2 | 17.3 | 72 | 51,991 | 0.39 | 0 | 1.69 | 29.1 | 35.1 | 0 | 2.14 | 3.93 | 8.76 |